Warnow Chief — 5BVL2 — position and weather

sailwx.info

Track history (hours):
 
Tides and Currents Weather Stations Pressure Air Temp Water Temp Dewpoint Dewpoint Depression Visibility Wind Speed Wind Dir Waves Ship Positions

Warnow Chief

Last reported at 2018-Apr-25 06:24 UTC. Time now 2018-Apr-25 06:39 UTC.
Position S 06°58' E 112°42'.

Length 180 m; draft 8.5 m.

Type: Ship (hazmat cat B). MMSI: 209138000.

Date/timePositionNaut miles runAvg speedWind from/ knotsBaromVisibWave heightAir tempDewpointWater temp
2018-Apr-25 06:24S 06°58' E 112°42'6 8.9
2018-Apr-25 05:41S 06°52' E 112°45'2 0.4
2018-Apr-24 23:46S 06°50' E 112°45'0 0.1
2018-Apr-24 23:21S 06°50' E 112°45'  
2018-Apr-22 15:13N 01°12' E 103°53'313.0
2018-Apr-22 14:59N 01°11' E 103°50'4 9.1
2018-Apr-22 14:30N 01°14' E 103°47'3 5.1
2018-Apr-22 13:58N 01°17' E 103°46'0 0.0
2018-Apr-22 13:30N 01°17' E 103°46'0 0.0
2018-Apr-22 12:57N 01°17' E 103°46'0 0.0
2018-Apr-22 12:30N 01°17' E 103°46'0 0.0
2018-Apr-22 11:54N 01°17' E 103°46'0 0.0
2018-Apr-22 11:27N 01°17' E 103°46'0 0.0
2018-Apr-22 10:57N 01°17' E 103°46'0 0.0
2018-Apr-22 10:30N 01°17' E 103°46'0 0.0
2018-Apr-22 09:57N 01°17' E 103°46'0 0.0
2018-Apr-22 09:30N 01°17' E 103°46'0 0.0
2018-Apr-22 08:57N 01°17' E 103°46'0 0.0
2018-Apr-22 08:27N 01°17' E 103°46'0 0.0
2018-Apr-22 07:57N 01°17' E 103°46'0 0.0
2018-Apr-22 07:27N 01°17' E 103°46'0 0.0
2018-Apr-22 06:57N 01°17' E 103°46'0 0.0
2018-Apr-22 06:30N 01°17' E 103°46'0 0.0
2018-Apr-22 05:57N 01°17' E 103°46'0 0.0
2018-Apr-22 05:30N 01°17' E 103°46'0 0.0
2018-Apr-22 05:01N 01°17' E 103°46'1 1.1
2018-Apr-22 04:30N 01°17' E 103°46'2 3.2
2018-Apr-22 04:00N 01°16' E 103°46'1 1.3
2018-Apr-22 03:30N 01°16' E 103°47'0 0.0
2018-Apr-22 02:57N 01°16' E 103°47'0 0.0
2018-Apr-22 02:09N 01°16' E 103°47'0 0.0
2018-Apr-22 01:57N 01°16' E 103°47'0 0.0
2018-Apr-22 01:27N 01°16' E 103°47'0 0.0
2018-Apr-22 00:57N 01°16' E 103°47'0 0.0
2018-Apr-22 00:30N 01°16' E 103°47'0 0.0
2018-Apr-21 23:54N 01°16' E 103°47'0 0.0
2018-Apr-21 23:30N 01°16' E 103°47'0 0.0
2018-Apr-21 22:57N 01°16' E 103°47'0 0.0
2018-Apr-21 22:27N 01°16' E 103°47'0 0.0
2018-Apr-21 21:57N 01°16' E 103°47'0 0.0
2018-Apr-21 21:30N 01°16' E 103°47'0 0.0
2018-Apr-21 20:57N 01°16' E 103°47'0 0.0
2018-Apr-21 20:21N 01°16' E 103°47'0 0.0
2018-Apr-21 19:57N 01°16' E 103°47'0 0.0
2018-Apr-21 19:24N 01°16' E 103°47'0 0.0
2018-Apr-21 18:57N 01°16' E 103°47'0 0.0
2018-Apr-21 18:30N 01°16' E 103°47'0 0.0
2018-Apr-21 17:54N 01°16' E 103°47'0 0.0
2018-Apr-21 17:30N 01°16' E 103°47'0 0.0
2018-Apr-21 16:45N 01°16' E 103°47'0 0.0
2018-Apr-21 16:27N 01°16' E 103°47'0 0.0
2018-Apr-21 15:57N 01°16' E 103°47'0 0.0
2018-Apr-21 15:21N 01°16' E 103°47'0 0.0
2018-Apr-21 14:51N 01°16' E 103°47'0 0.0
2018-Apr-21 14:27N 01°16' E 103°47'0 0.0
2018-Apr-21 13:45N 01°16' E 103°47'0 0.0
2018-Apr-21 13:27N 01°16' E 103°47'0 0.0
2018-Apr-21 12:57N 01°16' E 103°47'0 0.0
2018-Apr-21 12:27N 01°16' E 103°47'0 0.0
2018-Apr-21 11:54N 01°16' E 103°47'0 0.0
2018-Apr-21 11:09N 01°16' E 103°47'0 0.0
2018-Apr-21 10:21N 01°16' E 103°47'0 0.0
2018-Apr-21 09:54N 01°16' E 103°47'1 3.1
2018-Apr-21 09:30N 01°15' E 103°47'610.9
2018-Apr-21 08:56N 01°13' E 103°53'71914.0
2018-Apr-19 05:43S 06°52' E 112°45'611.1
2018-Apr-19 05:13S 06°57' E 112°43'414.6
2018-Apr-19 04:58S 07°00' E 112°41'714.1
2018-Apr-19 04:29S 07°07' E 112°39'511.2
2018-Apr-19 04:00S 07°12' E 112°42'0 0.1
2018-Apr-19 00:02S 07°12' E 112°43'0 0.0
2018-Apr-18 23:59S 07°12' E 112°43'0 0.0
2018-Apr-18 19:38S 07°12' E 112°43'0 0.0
2018-Apr-18 14:11S 07°12' E 112°43'0 0.0
2018-Apr-18 13:47S 07°12' E 112°43'0 0.0
2018-Apr-18 10:01S 07°12' E 112°43'0 0.0
2018-Apr-18 05:28S 07°12' E 112°43'0 0.0
2018-Apr-18 03:16S 07°12' E 112°43'0 0.0
2018-Apr-18 02:46S 07°12' E 112°43'0 0.0
2018-Apr-18 02:19S 07°12' E 112°43'0 0.0
2018-Apr-18 01:46S 07°12' E 112°43'0 0.0
2018-Apr-18 01:23S 07°12' E 112°43'1 2.6
2018-Apr-18 00:53S 07°11' E 112°42'511.4
2018-Apr-18 00:26S 07°06' E 112°39'714.1
2018-Apr-17 23:58S 07°00' E 112°41'711.2
2018-Apr-17 23:21S 06°54' E 112°44'  
2018-Apr-15 11:35N 01°12' E 103°52'210.0
2018-Apr-15 11:23N 01°12' E 103°50'2 5.7
2018-Apr-15 10:59N 01°13' E 103°48'510.8
2018-Apr-15 10:30N 01°17' E 103°45'2 2.7
2018-Apr-15 09:57N 01°17' E 103°46'0 0.0
2018-Apr-15 09:24N 01°17' E 103°46'0 0.0
2018-Apr-15 08:57N 01°17' E 103°46'0 0.0
2018-Apr-15 08:30N 01°17' E 103°46'0 0.0
2018-Apr-15 07:54N 01°17' E 103°46'0 0.0
2018-Apr-15 07:30N 01°17' E 103°46'0 0.0
2018-Apr-15 07:00N 01°17' E 103°46'0 0.0
2018-Apr-15 06:27N 01°17' E 103°46'  
Track history (hours):
 
Tides and Currents Weather Stations Pressure Air Temp Water Temp Dewpoint Dewpoint Depression Visibility Wind Speed Wind Dir Waves Ship Positions

Warnow Chief

Last reported at 2018-Apr-25 06:24 UTC. Time now 2018-Apr-25 06:39 UTC.
Position S 06°58' E 112°42'.

Length 180 m; draft 8.5 m.

Type: Ship (hazmat cat B). MMSI: 209138000.

Date/timePositionNaut miles runAvg speedWind from/ knotsBaromVisibWave heightAir tempDewpointWater temp
2018-Apr-25 06:24S 06°58' E 112°42'6 8.9
2018-Apr-25 05:41S 06°52' E 112°45'2 0.4
2018-Apr-24 23:46S 06°50' E 112°45'0 0.1
2018-Apr-24 23:21S 06°50' E 112°45'  
2018-Apr-22 15:13N 01°12' E 103°53'313.0
2018-Apr-22 14:59N 01°11' E 103°50'4 9.1
2018-Apr-22 14:30N 01°14' E 103°47'3 5.1
2018-Apr-22 13:58N 01°17' E 103°46'0 0.0
2018-Apr-22 13:30N 01°17' E 103°46'0 0.0
2018-Apr-22 12:57N 01°17' E 103°46'0 0.0
2018-Apr-22 12:30N 01°17' E 103°46'0 0.0
2018-Apr-22 11:54N 01°17' E 103°46'0 0.0
2018-Apr-22 11:27N 01°17' E 103°46'0 0.0
2018-Apr-22 10:57N 01°17' E 103°46'0 0.0
2018-Apr-22 10:30N 01°17' E 103°46'0 0.0
2018-Apr-22 09:57N 01°17' E 103°46'0 0.0
2018-Apr-22 09:30N 01°17' E 103°46'0 0.0
2018-Apr-22 08:57N 01°17' E 103°46'0 0.0
2018-Apr-22 08:27N 01°17' E 103°46'0 0.0
2018-Apr-22 07:57N 01°17' E 103°46'0 0.0
2018-Apr-22 07:27N 01°17' E 103°46'0 0.0
2018-Apr-22 06:57N 01°17' E 103°46'0 0.0
2018-Apr-22 06:30N 01°17' E 103°46'0 0.0
2018-Apr-22 05:57N 01°17' E 103°46'0 0.0
2018-Apr-22 05:30N 01°17' E 103°46'0 0.0
2018-Apr-22 05:01N 01°17' E 103°46'1 1.1
2018-Apr-22 04:30N 01°17' E 103°46'2 3.2
2018-Apr-22 04:00N 01°16' E 103°46'1 1.3
2018-Apr-22 03:30N 01°16' E 103°47'0 0.0
2018-Apr-22 02:57N 01°16' E 103°47'0 0.0
2018-Apr-22 02:09N 01°16' E 103°47'0 0.0
2018-Apr-22 01:57N 01°16' E 103°47'0 0.0
2018-Apr-22 01:27N 01°16' E 103°47'0 0.0
2018-Apr-22 00:57N 01°16' E 103°47'0 0.0
2018-Apr-22 00:30N 01°16' E 103°47'0 0.0
2018-Apr-21 23:54N 01°16' E 103°47'0 0.0
2018-Apr-21 23:30N 01°16' E 103°47'0 0.0
2018-Apr-21 22:57N 01°16' E 103°47'0 0.0
2018-Apr-21 22:27N 01°16' E 103°47'0 0.0
2018-Apr-21 21:57N 01°16' E 103°47'0 0.0
2018-Apr-21 21:30N 01°16' E 103°47'0 0.0
2018-Apr-21 20:57N 01°16' E 103°47'0 0.0
2018-Apr-21 20:21N 01°16' E 103°47'0 0.0
2018-Apr-21 19:57N 01°16' E 103°47'0 0.0
2018-Apr-21 19:24N 01°16' E 103°47'0 0.0
2018-Apr-21 18:57N 01°16' E 103°47'0 0.0
2018-Apr-21 18:30N 01°16' E 103°47'0 0.0
2018-Apr-21 17:54N 01°16' E 103°47'0 0.0
2018-Apr-21 17:30N 01°16' E 103°47'0 0.0
2018-Apr-21 16:45N 01°16' E 103°47'0 0.0
2018-Apr-21 16:27N 01°16' E 103°47'0 0.0
2018-Apr-21 15:57N 01°16' E 103°47'0 0.0
2018-Apr-21 15:21N 01°16' E 103°47'0 0.0
2018-Apr-21 14:51N 01°16' E 103°47'0 0.0
2018-Apr-21 14:27N 01°16' E 103°47'0 0.0
2018-Apr-21 13:45N 01°16' E 103°47'0 0.0
2018-Apr-21 13:27N 01°16' E 103°47'0 0.0
2018-Apr-21 12:57N 01°16' E 103°47'0 0.0
2018-Apr-21 12:27N 01°16' E 103°47'0 0.0
2018-Apr-21 11:54N 01°16' E 103°47'0 0.0
2018-Apr-21 11:09N 01°16' E 103°47'0 0.0
2018-Apr-21 10:21N 01°16' E 103°47'0 0.0
2018-Apr-21 09:54N 01°16' E 103°47'1 3.1
2018-Apr-21 09:30N 01°15' E 103°47'610.9
2018-Apr-21 08:56N 01°13' E 103°53'71914.0
2018-Apr-19 05:43S 06°52' E 112°45'611.1
2018-Apr-19 05:13S 06°57' E 112°43'414.6
2018-Apr-19 04:58S 07°00' E 112°41'714.1
2018-Apr-19 04:29S 07°07' E 112°39'511.2
2018-Apr-19 04:00S 07°12' E 112°42'0 0.1
2018-Apr-19 00:02S 07°12' E 112°43'0 0.0
2018-Apr-18 23:59S 07°12' E 112°43'0 0.0
2018-Apr-18 19:38S 07°12' E 112°43'0 0.0
2018-Apr-18 14:11S 07°12' E 112°43'0 0.0
2018-Apr-18 13:47S 07°12' E 112°43'0 0.0
2018-Apr-18 10:01S 07°12' E 112°43'0 0.0
2018-Apr-18 05:28S 07°12' E 112°43'0 0.0
2018-Apr-18 03:16S 07°12' E 112°43'0 0.0
2018-Apr-18 02:46S 07°12' E 112°43'0 0.0
2018-Apr-18 02:19S 07°12' E 112°43'0 0.0
2018-Apr-18 01:46S 07°12' E 112°43'0 0.0
2018-Apr-18 01:23S 07°12' E 112°43'1 2.6
2018-Apr-18 00:53S 07°11' E 112°42'511.4
2018-Apr-18 00:26S 07°06' E 112°39'714.1
2018-Apr-17 23:58S 07°00' E 112°41'711.2
2018-Apr-17 23:21S 06°54' E 112°44'  
2018-Apr-15 11:35N 01°12' E 103°52'210.0
2018-Apr-15 11:23N 01°12' E 103°50'2 5.7
2018-Apr-15 10:59N 01°13' E 103°48'510.8
2018-Apr-15 10:30N 01°17' E 103°45'2 2.7
2018-Apr-15 09:57N 01°17' E 103°46'0 0.0
2018-Apr-15 09:24N 01°17' E 103°46'0 0.0
2018-Apr-15 08:57N 01°17' E 103°46'0 0.0
2018-Apr-15 08:30N 01°17' E 103°46'0 0.0
2018-Apr-15 07:54N 01°17' E 103°46'0 0.0
2018-Apr-15 07:30N 01°17' E 103°46'0 0.0
2018-Apr-15 07:00N 01°17' E 103°46'0 0.0
2018-Apr-15 06:27N 01°17' E 103°46'  

Dump ship's entire track history